Time;durP1;ratioP1;P1;durP2;ratioP2;P2;SDS_P1;SDS_P2;PMS_P1;PMS_P2;Temp;Humidity;BMP_temperature;BMP_pressure;BME280_temperature;BME280_humidity;BME280_pressure;Samples;Min_cycle;Max_cycle;Signal;HPM_P1;HPM_P2
2021/12/15 00:00:43;;;;;;;50.40;29.55;;;22.90;38.80;;;;;;6159116;28;84707;-70
2021/12/15 00:03:44;;;;;;;52.92;29.20;;;22.90;38.90;;;;;;6158079;28;83128;-69
2021/12/15 00:06:44;;;;;;;52.58;30.23;;;22.90;38.90;;;;;;6155297;28;82962;-69
2021/12/15 00:09:45;;;;;;;50.45;29.42;;;22.90;39.00;;;;;;6157591;28;84030;-69
2021/12/15 00:12:45;;;;;;;52.60;29.48;;;22.90;39.10;;;;;;6158879;28;83025;-69
2021/12/15 00:15:46;;;;;;;55.20;30.80;;;22.90;38.90;;;;;;6158730;28;83853;-69
2021/12/15 00:18:46;;;;;;;55.20;29.85;;;22.80;39.00;;;;;;6158732;28;83410;-70
2021/12/15 00:21:47;;;;;;;53.67;27.88;;;22.80;39.10;;;;;;6170752;28;83403;-70
2021/12/15 00:24:47;;;;;;;50.60;28.70;;;22.80;39.20;;;;;;6176888;28;83062;-70
2021/12/15 00:27:48;;;;;;;48.08;27.67;;;22.80;39.10;;;;;;6164267;28;82796;-70
2021/12/15 00:30:48;;;;;;;54.13;28.20;;;22.80;39.10;;;;;;6174456;28;85223;-70
2021/12/15 00:33:49;;;;;;;52.20;28.33;;;22.80;39.30;;;;;;6176209;28;83174;-70
2021/12/15 00:36:50;;;;;;;49.58;28.27;;;22.80;39.40;;;;;;6176725;28;83183;-69
2021/12/15 00:39:50;;;;;;;48.65;27.67;;;22.80;39.10;;;;;;6171767;28;82858;-69
2021/12/15 00:42:51;;;;;;;52.78;28.67;;;22.80;39.10;;;;;;6158665;28;83052;-69
2021/12/15 00:45:52;;;;;;;51.95;29.08;;;22.80;39.20;;;;;;6175880;28;83503;-69
2021/12/15 00:48:52;;;;;;;50.03;27.40;;;22.80;39.90;;;;;;6162431;28;83030;-70
2021/12/15 00:51:53;;;;;;;58.38;31.38;;;22.80;39.30;;;;;;6167419;28;83103;-69
2021/12/15 00:54:53;;;;;;;54.33;31.67;;;22.80;39.20;;;;;;6174578;28;86397;-69
2021/12/15 00:57:54;;;;;;;51.42;29.00;;;22.80;39.20;;;;;;6202143;28;84821;-70
2021/12/15 01:00:54;;;;;;;59.35;31.75;;;22.80;39.10;;;;;;6165309;28;83941;-68
2021/12/15 01:03:55;;;;;;;57.67;31.27;;;22.80;39.10;;;;;;6165519;28;83013;-69
2021/12/15 01:06:55;;;;;;;52.78;30.25;;;22.80;39.10;;;;;;6160363;28;85871;-69
2021/12/15 01:09:58;;;;;;;61.38;32.50;;;22.80;39.20;;;;;;6161031;28;83134;-69
2021/12/15 01:22:43;;;;;;;58.65;32.15;;;22.80;39.10;;;;;;6168428;28;85294;-69
2021/12/15 01:25:44;;;;;;;59.35;31.80;;;22.80;39.20;;;;;;6206838;28;85933;-68
2021/12/15 01:28:45;;;;;;;62.28;33.83;;;22.80;39.20;;;;;;6169874;28;85835;-69
2021/12/15 01:31:45;;;;;;;58.58;33.00;;;22.80;39.40;;;;;;6159760;28;83241;-68
2021/12/15 01:34:47;;;;;;;56.90;32.42;;;22.80;39.90;;;;;;6155551;28;83223;-68
2021/12/15 01:37:48;;;;;;;62.15;33.10;;;22.80;39.20;;;;;;6159392;28;85894;-69
2021/12/15 01:40:48;;;;;;;58.28;32.83;;;22.80;39.20;;;;;;6157668;28;83373;-68
2021/12/15 01:46:52;;;;;;;59.20;33.25;;;22.80;39.30;;;;;;6170938;28;83322;-68
2021/12/15 01:47:09;;;;;;;66.47;32.90;;;22.80;39.60;;;;;;6153930;28;83960;-69
2021/12/15 01:50:10;;;;;;;57.28;33.47;;;22.80;39.70;;;;;;6167879;28;83323;-68
2021/12/15 01:53:10;;;;;;;57.92;32.22;;;22.80;39.70;;;;;;6157995;28;82987;-68
2021/12/15 01:56:11;;;;;;;58.85;32.22;;;22.80;39.50;;;;;;6174348;28;82838;-68
2021/12/15 01:59:11;;;;;;;61.35;32.83;;;22.80;39.70;;;;;;6160340;28;85693;-68
2021/12/15 02:02:12;;;;;;;60.17;31.42;;;22.80;39.60;;;;;;6166037;28;85920;-69
2021/12/15 02:05:12;;;;;;;56.92;31.52;;;22.80;39.90;;;;;;6156351;28;84577;-69
2021/12/15 02:08:13;;;;;;;57.90;31.30;;;22.80;39.70;;;;;;6145128;28;84141;-68
2021/12/15 02:11:14;;;;;;;64.10;33.25;;;22.80;39.70;;;;;;6174911;28;84206;-68
2021/12/15 02:14:15;;;;;;;54.65;31.67;;;22.80;39.80;;;;;;6156670;28;85562;-69
2021/12/15 02:17:15;;;;;;;56.75;32.58;;;22.70;39.80;;;;;;6154941;28;85214;-70
2021/12/15 02:20:16;;;;;;;59.05;32.22;;;22.70;39.60;;;;;;6155377;28;85901;-70
2021/12/15 02:23:16;;;;;;;53.50;30.10;;;22.70;39.90;;;;;;6149768;28;83157;-70
2021/12/15 02:26:18;;;;;;;54.53;31.02;;;22.70;39.80;;;;;;6142118;28;84479;-69
2021/12/15 02:29:21;;;;;;;54.60;29.92;;;22.70;39.70;;;;;;6159544;28;86113;-70
2021/12/15 02:38:53;;;;;;;53.00;29.60;;;22.70;39.90;;;;;;6165946;28;83289;-70
2021/12/15 02:41:55;;;;;;;55.33;30.77;;;22.70;39.60;;;;;;6155422;28;84819;-70
2021/12/15 02:44:55;;;;;;;57.88;30.13;;;22.70;39.60;;;;;;6159602;28;83248;-71
2021/12/15 02:47:56;;;;;;;57.47;31.05;;;22.70;39.60;;;;;;6161604;28;82973;-70
2021/12/15 02:50:56;;;;;;;50.63;28.85;;;22.70;39.70;;;;;;6157090;28;83307;-70
2021/12/15 02:53:57;;;;;;;58.13;30.83;;;22.70;39.60;;;;;;6155758;28;83381;-70
2021/12/15 02:57:05;;;;;;;53.40;29.00;;;22.80;39.70;;;;;;6155542;28;83186;-70
2021/12/15 03:00:16;;;;;;;55.25;29.85;;;22.70;39.80;;;;;;6155855;28;83427;-69
2021/12/15 03:03:57;;;;;;;57.85;31.45;;;22.80;39.70;;;;;;6157814;28;84884;-70
2021/12/15 03:06:48;;;;;;;54.00;28.90;;;22.70;39.80;;;;;;6167571;28;85183;-69
2021/12/15 03:16:41;;;;;;;53.22;27.70;;;22.80;40.10;;;;;;6173201;28;83521;-69
2021/12/15 03:19:41;;;;;;;54.72;30.48;;;22.80;39.50;;;;;;6154510;28;83376;-70
2021/12/15 03:22:42;;;;;;;52.17;28.50;;;22.80;39.50;;;;;;6172446;28;85649;-72
2021/12/15 03:25:42;;;;;;;54.38;29.20;;;22.80;39.20;;;;;;6154731;28;83018;-73
2021/12/15 03:35:35;;;;;;;49.63;28.35;;;23.00;39.40;;;;;;6160562;28;83413;-71
2021/12/15 03:38:35;;;;;;;49.50;28.58;;;23.00;39.20;;;;;;6165403;28;87613;-71
2021/12/15 03:41:36;;;;;;;50.53;28.65;;;23.10;39.20;;;;;;6164358;28;83485;-71
2021/12/15 03:44:36;;;;;;;48.75;28.13;;;23.10;39.20;;;;;;6169154;28;84019;-70
2021/12/15 03:47:37;;;;;;;53.85;29.02;;;23.20;39.20;;;;;;6158018;28;86018;-70
2021/12/15 03:50:37;;;;;;;53.55;28.95;;;23.20;39.10;;;;;;6161321;28;82997;-71
2021/12/15 03:53:38;;;;;;;52.97;28.88;;;23.20;39.00;;;;;;6162848;28;82827;-70
2021/12/15 03:56:43;;;;;;;53.38;29.90;;;23.20;39.00;;;;;;6163760;28;90411;-70
2021/12/15 03:59:44;;;;;;;55.93;29.80;;;23.30;39.00;;;;;;6153552;28;84347;-70
2021/12/15 04:02:45;;;;;;;50.78;28.05;;;23.30;39.00;;;;;;6159158;28;83763;-70
2021/12/15 04:05:46;;;;;;;50.28;28.50;;;23.30;39.00;;;;;;6159545;28;83106;-69
2021/12/15 04:08:46;;;;;;;52.72;29.50;;;23.30;39.00;;;;;;6169407;28;83364;-69
2021/12/15 04:11:47;;;;;;;47.97;26.77;;;23.30;39.00;;;;;;6160378;28;83384;-68
2021/12/15 04:14:55;;;;;;;50.80;29.33;;;23.40;39.00;;;;;;6154688;28;83593;-69
2021/12/15 04:17:56;;;;;;;50.70;28.95;;;23.40;39.00;;;;;;6155798;28;82977;-69
2021/12/15 04:20:56;;;;;;;51.00;27.60;;;23.40;39.00;;;;;;6165171;28;83554;-70
2021/12/15 04:23:57;;;;;;;52.65;28.85;;;23.40;39.00;;;;;;6168453;28;83389;-69
2021/12/15 04:26:58;;;;;;;54.58;28.60;;;23.40;39.00;;;;;;6157082;28;83209;-68
2021/12/15 04:29:58;;;;;;;52.65;29.63;;;23.40;39.00;;;;;;6158240;28;83286;-68
2021/12/15 04:32:59;;;;;;;50.30;28.52;;;23.40;39.00;;;;;;6169516;28;83276;-68
2021/12/15 04:35:59;;;;;;;52.55;28.60;;;23.40;39.00;;;;;;6169752;28;84191;-70
2021/12/15 04:39:00;;;;;;;53.30;28.70;;;23.40;39.00;;;;;;6174927;28;83044;-70
2021/12/15 04:42:00;;;;;;;50.75;28.77;;;23.50;39.00;;;;;;6163400;28;83201;-70
2021/12/15 04:45:01;;;;;;;55.95;29.80;;;23.50;39.00;;;;;;6167777;28;83035;-70
2021/12/15 04:48:01;;;;;;;52.42;29.08;;;23.50;39.00;;;;;;6175598;27;83149;-71
2021/12/15 04:51:02;;;;;;;50.35;28.05;;;23.50;39.10;;;;;;6172459;28;83143;-72
2021/12/15 04:54:02;;;;;;;52.53;28.50;;;23.50;39.20;;;;;;6167414;28;83215;-70
2021/12/15 04:57:03;;;;;;;50.92;28.42;;;23.60;39.60;;;;;;6165220;28;83355;-70
2021/12/15 05:00:04;;;;;;;54.90;29.20;;;23.60;40.50;;;;;;6165896;28;83294;-70
2021/12/15 05:03:06;;;;;;;50.35;27.20;;;23.60;39.50;;;;;;6157024;28;82953;-71
2021/12/15 05:06:06;;;;;;;54.95;29.83;;;23.60;39.30;;;;;;6172753;27;83015;-68
2021/12/15 05:09:07;;;;;;;51.80;28.20;;;23.60;39.30;;;;;;6174629;27;83630;-68
2021/12/15 05:12:07;;;;;;;52.53;27.48;;;23.60;39.20;;;;;;6173574;27;83430;-77
2021/12/15 05:15:08;;;;;;;49.13;26.67;;;23.60;39.10;;;;;;6173830;27;84905;-68
2021/12/15 05:18:08;;;;;;;54.22;27.90;;;23.60;39.30;;;;;;6160554;28;83712;-69
2021/12/15 05:21:10;;;;;;;50.25;25.80;;;23.60;39.00;;;;;;6155762;28;84312;-68
2021/12/15 05:24:22;;;;;;;50.25;26.38;;;23.70;39.20;;;;;;6157141;28;83075;-68
2021/12/15 05:27:22;;;;;;;46.00;25.33;;;23.70;39.80;;;;;;6157757;28;83530;-67
2021/12/15 05:30:23;;;;;;;37.40;21.00;;;23.70;40.50;;;;;;6156875;28;83955;-68
2021/12/15 05:33:23;;;;;;;30.98;17.95;;;23.60;42.70;;;;;;6157302;28;84534;-68
2021/12/15 05:36:24;;;;;;;28.13;16.33;;;23.50;44.10;;;;;;6157804;28;84459;-69
2021/12/15 05:39:24;;;;;;;31.65;16.35;;;23.50;45.10;;;;;;6155647;28;83072;-68
2021/12/15 05:42:25;;;;;;;31.13;16.40;;;23.50;45.70;;;;;;6152448;28;85802;-69
2021/12/15 05:45:25;;;;;;;24.90;14.60;;;23.50;46.30;;;;;;6156957;28;83031;-69
2021/12/15 05:48:26;;;;;;;24.70;13.52;;;23.50;47.10;;;;;;6148994;28;83507;-67
2021/12/15 05:51:26;;;;;;;21.42;12.68;;;23.50;47.50;;;;;;6156070;28;83205;-70
2021/12/15 05:54:27;;;;;;;23.60;12.13;;;23.40;47.90;;;;;;6154561;28;83064;-67
2021/12/15 05:57:28;;;;;;;23.85;13.05;;;23.40;48.60;;;;;;6157700;28;83153;-64
2021/12/15 06:00:28;;;;;;;23.15;13.55;;;23.40;49.10;;;;;;6155068;28;84785;-67
2021/12/15 06:03:29;;;;;;;23.13;13.38;;;23.30;49.60;;;;;;6156858;28;83241;-67
2021/12/15 06:06:29;;;;;;;21.02;13.35;;;23.30;50.20;;;;;;6157316;28;84022;-70
2021/12/15 06:09:30;;;;;;;19.90;11.35;;;23.30;50.70;;;;;;6156362;28;83099;-68
2021/12/15 06:12:30;;;;;;;23.20;12.52;;;23.20;50.90;;;;;;6156797;28;84639;-67
2021/12/15 06:15:31;;;;;;;26.73;13.25;;;23.20;51.10;;;;;;6155121;28;85743;-67
2021/12/15 06:18:31;;;;;;;19.38;11.55;;;23.10;51.40;;;;;;6154381;28;84184;-67
2021/12/15 06:21:32;;;;;;;22.90;12.18;;;23.10;51.80;;;;;;6155831;28;83062;-65
2021/12/15 06:24:33;;;;;;;21.92;11.50;;;23.10;52.00;;;;;;6155804;28;82994;-66
2021/12/15 06:27:36;;;;;;;20.42;10.45;;;23.20;52.00;;;;;;6153835;28;83292;-66
2021/12/15 06:30:36;;;;;;;19.60;11.15;;;23.30;52.30;;;;;;6155691;28;83251;-66
2021/12/15 06:33:38;;;;;;;21.45;11.27;;;23.30;51.80;;;;;;6155691;28;83234;-67
2021/12/15 06:36:38;;;;;;;22.92;12.38;;;23.40;51.80;;;;;;6154015;28;84574;-68
2021/12/15 06:39:39;;;;;;;20.10;11.60;;;23.40;51.50;;;;;;6156421;28;83607;-70
2021/12/15 06:42:39;;;;;;;26.05;12.05;;;23.40;51.10;;;;;;6155671;28;83449;-69
2021/12/15 06:45:55;;;;;;;24.60;13.52;;;23.40;51.10;;;;;;6146397;28;83229;-66
2021/12/15 06:58:53;;;;;;;29.33;16.00;;;23.40;49.70;;;;;;6146257;28;83948;-69
2021/12/15 07:01:54;;;;;;;30.70;17.15;;;23.30;49.00;;;;;;6143915;28;83124;-68
2021/12/15 07:04:55;;;;;;;35.22;18.25;;;23.30;47.90;;;;;;6149942;28;83444;-67
2021/12/15 07:07:55;;;;;;;31.75;18.23;;;23.30;47.20;;;;;;6153460;28;83518;-67
2021/12/15 07:10:56;;;;;;;33.47;18.75;;;23.30;46.70;;;;;;6149890;28;84394;-68
2021/12/15 07:13:56;;;;;;;33.97;19.80;;;23.30;46.10;;;;;;6151362;28;82881;-67
2021/12/15 07:16:58;;;;;;;41.67;22.02;;;23.20;45.40;;;;;;6153676;28;83852;-67
2021/12/15 07:23:02;;;;;;;39.85;21.83;;;23.30;45.00;;;;;;6153586;28;83149;-68
2021/12/15 07:26:03;;;;;;;43.20;23.17;;;23.20;44.60;;;;;;6156045;28;83198;-66
2021/12/15 07:29:03;;;;;;;41.97;22.73;;;23.20;44.00;;;;;;6159159;28;84215;-68
2021/12/15 07:32:04;;;;;;;38.95;23.00;;;23.20;44.40;;;;;;6158333;28;84514;-67
2021/12/15 07:35:04;;;;;;;36.15;22.30;;;23.20;43.40;;;;;;6159731;28;82804;-73
2021/12/15 07:38:05;;;;;;;42.60;23.40;;;23.20;44.10;;;;;;6158466;28;83390;-70
2021/12/15 07:41:07;;;;;;;40.50;23.45;;;23.10;43.80;;;;;;6158694;28;83177;-70
2021/12/15 07:44:07;;;;;;;40.88;23.95;;;23.10;43.20;;;;;;6159922;28;83386;-71
2021/12/15 07:47:08;;;;;;;41.90;24.23;;;23.10;43.30;;;;;;6157171;28;85390;-70
2021/12/15 07:50:08;;;;;;;45.72;25.17;;;23.10;43.50;;;;;;6158463;28;84097;-70
2021/12/15 07:53:09;;;;;;;42.75;24.13;;;23.00;43.10;;;;;;6160750;28;83537;-71
2021/12/15 07:56:09;;;;;;;46.78;24.77;;;23.00;43.10;;;;;;6153109;28;84276;-72
2021/12/15 07:59:10;;;;;;;45.80;24.85;;;23.10;43.30;;;;;;6159210;28;83794;-74
2021/12/15 08:02:10;;;;;;;44.25;24.38;;;23.10;43.10;;;;;;6152325;28;83719;-72
2021/12/15 08:05:11;;;;;;;47.45;25.30;;;23.10;43.20;;;;;;6158167;28;83480;-68
2021/12/15 08:08:11;;;;;;;42.70;24.20;;;23.10;43.40;;;;;;6157159;28;83255;-67
2021/12/15 08:11:12;;;;;;;46.47;26.27;;;23.00;43.00;;;;;;6160160;28;84622;-68
2021/12/15 08:14:12;;;;;;;45.70;26.40;;;23.00;42.80;;;;;;6158558;28;82796;-68
2021/12/15 08:17:14;;;;;;;47.55;26.48;;;23.00;42.70;;;;;;6157587;28;83497;-69
2021/12/15 08:20:15;;;;;;;46.15;25.75;;;23.00;42.60;;;;;;6158979;28;84514;-68
2021/12/15 08:23:15;;;;;;;46.53;26.42;;;23.00;42.50;;;;;;6154338;28;85621;-68
2021/12/15 08:26:17;;;;;;;45.00;26.17;;;23.00;42.20;;;;;;6158586;28;83746;-68
2021/12/15 08:29:19;;;;;;;45.97;25.80;;;23.00;42.50;;;;;;6158064;28;83003;-68
2021/12/15 08:32:19;;;;;;;44.40;26.65;;;23.00;42.60;;;;;;6159053;28;82970;-68
2021/12/15 08:35:20;;;;;;;47.03;27.27;;;23.00;42.50;;;;;;6157901;28;84374;-69
2021/12/15 08:38:20;;;;;;;50.20;28.40;;;23.00;42.80;;;;;;6160132;28;83194;-68
2021/12/15 08:41:21;;;;;;;45.50;25.77;;;23.00;42.20;;;;;;6158612;28;83371;-69
2021/12/15 08:44:21;;;;;;;43.45;25.88;;;23.00;42.30;;;;;;6158461;28;83236;-69
2021/12/15 08:47:22;;;;;;;42.20;26.13;;;23.00;41.90;;;;;;6159714;28;83096;-68
2021/12/15 08:50:22;;;;;;;43.35;26.20;;;23.00;41.90;;;;;;6158417;28;84018;-68
2021/12/15 08:53:23;;;;;;;51.80;27.92;;;23.00;42.00;;;;;;6161171;28;84439;-68
2021/12/15 08:56:24;;;;;;;43.67;26.00;;;23.00;42.00;;;;;;6157867;28;84801;-67
2021/12/15 08:59:24;;;;;;;47.25;26.83;;;23.00;41.60;;;;;;6157994;28;89136;-68
2021/12/15 09:02:25;;;;;;;46.45;27.55;;;23.00;41.60;;;;;;6158177;28;83008;-69
2021/12/15 09:05:25;;;;;;;44.97;25.20;;;23.00;41.40;;;;;;6158573;28;83055;-68
2021/12/15 09:08:26;;;;;;;45.35;26.15;;;23.00;41.50;;;;;;6157298;28;82943;-70
2021/12/15 09:11:26;;;;;;;48.60;27.35;;;23.00;41.60;;;;;;6158361;28;83391;-68
2021/12/15 09:14:27;;;;;;;42.88;24.70;;;23.00;41.30;;;;;;6157092;28;82899;-68
2021/12/15 09:17:27;;;;;;;44.22;26.27;;;23.00;41.20;;;;;;6157922;28;83100;-69
2021/12/15 09:20:28;;;;;;;48.55;27.33;;;23.00;41.20;;;;;;6157119;28;83059;-69
2021/12/15 09:23:29;;;;;;;43.58;26.27;;;22.90;41.40;;;;;;6155764;28;83210;-68
2021/12/15 09:26:29;;;;;;;46.22;26.42;;;23.00;41.10;;;;;;6157295;28;83059;-69
2021/12/15 09:29:30;;;;;;;41.53;26.08;;;23.00;40.90;;;;;;6156866;28;84463;-67
2021/12/15 09:32:30;;;;;;;45.65;26.50;;;23.00;41.50;;;;;;6151386;28;84690;-68
2021/12/15 09:35:31;;;;;;;45.17;27.25;;;22.90;40.80;;;;;;6158890;28;83250;-69
2021/12/15 09:38:31;;;;;;;43.90;25.85;;;22.90;41.30;;;;;;6158615;28;83218;-66
2021/12/15 09:41:32;;;;;;;47.67;27.02;;;22.90;41.30;;;;;;6156425;28;83271;-68
2021/12/15 09:44:33;;;;;;;41.88;24.52;;;22.90;41.00;;;;;;6168327;28;83207;-69
2021/12/15 09:57:27;;;;;;;44.03;26.35;;;22.90;41.30;;;;;;6157388;28;84191;-70
2021/12/15 10:04:16;;;;;;;42.30;25.58;;;22.90;41.70;;;;;;6156386;28;83451;-70
2021/12/15 10:10:43;;;;;;;42.08;25.48;;;22.90;41.40;;;;;;6155123;28;83324;-68
2021/12/15 10:20:22;;;;;;;40.63;23.73;;;22.90;41.60;;;;;;6161695;28;83434;-69
2021/12/15 10:23:30;;;;;;;44.72;25.50;;;22.90;41.50;;;;;;6167547;28;83375;-71
2021/12/15 10:26:30;;;;;;;49.15;28.23;;;22.90;41.40;;;;;;6160712;28;87580;-71
2021/12/15 10:29:32;;;;;;;46.20;26.33;;;22.90;41.20;;;;;;6165169;28;83362;-71
2021/12/15 10:32:32;;;;;;;46.92;25.27;;;22.90;41.30;;;;;;6165655;28;83498;-72
2021/12/15 10:35:33;;;;;;;44.53;25.70;;;22.90;41.10;;;;;;6155484;28;83099;-72
2021/12/15 10:38:38;;;;;;;50.70;26.63;;;22.80;41.00;;;;;;6160514;28;82911;-71
2021/12/15 10:41:38;;;;;;;41.92;23.85;;;22.80;41.10;;;;;;6165021;28;83210;-71
2021/12/15 10:44:39;;;;;;;44.65;25.80;;;22.80;41.00;;;;;;6165336;28;83490;-72
2021/12/15 10:47:39;;;;;;;46.25;25.90;;;22.80;41.10;;;;;;6173562;28;83198;-73
2021/12/15 10:50:40;;;;;;;45.97;26.27;;;22.80;41.10;;;;;;6167110;28;83440;-73
2021/12/15 10:53:41;;;;;;;47.00;26.42;;;22.80;41.10;;;;;;6166875;28;83556;-73
2021/12/15 10:56:42;;;;;;;46.28;26.05;;;22.80;41.30;;;;;;6164161;28;83658;-71
2021/12/15 10:59:42;;;;;;;46.72;25.65;;;22.80;41.10;;;;;;6162488;28;85900;-72
2021/12/15 11:02:43;;;;;;;47.63;26.13;;;22.80;41.10;;;;;;6167820;28;83594;-70
2021/12/15 11:05:43;;;;;;;41.80;25.10;;;22.80;41.40;;;;;;6164966;28;89453;-69
2021/12/15 11:08:44;;;;;;;43.40;25.00;;;22.80;41.20;;;;;;6166634;28;84370;-69
2021/12/15 11:11:44;;;;;;;46.13;26.52;;;22.80;41.40;;;;;;6167697;27;86052;-69
2021/12/15 11:14:45;;;;;;;44.65;25.73;;;22.80;41.50;;;;;;6160875;28;83117;-71
2021/12/15 11:17:45;;;;;;;44.90;25.88;;;22.80;41.40;;;;;;6156969;28;83772;-69
2021/12/15 11:20:46;;;;;;;42.72;24.45;;;22.80;41.40;;;;;;6159409;28;82839;-72
2021/12/15 11:23:47;;;;;;;42.80;25.70;;;22.80;41.40;;;;;;6158397;28;84258;-72
2021/12/15 11:26:47;;;;;;;43.75;25.17;;;22.80;41.50;;;;;;6148148;28;83258;-72
2021/12/15 11:29:48;;;;;;;46.53;26.05;;;22.90;41.20;;;;;;6161164;28;82923;-68
2021/12/15 11:32:48;;;;;;;50.50;27.58;;;22.80;41.10;;;;;;6168761;27;83185;-68
2021/12/15 11:35:49;;;;;;;47.65;25.77;;;22.90;41.10;;;;;;6158222;28;83313;-68
2021/12/15 11:38:49;;;;;;;38.90;22.60;;;22.90;41.00;;;;;;6169611;28;82839;-72
2021/12/15 11:41:50;;;;;;;41.42;25.02;;;22.90;41.00;;;;;;6171218;28;85106;-68
2021/12/15 11:44:50;;;;;;;38.65;23.40;;;22.90;41.20;;;;;;6172420;28;83437;-68
2021/12/15 11:47:51;;;;;;;38.17;21.55;;;22.80;41.60;;;;;;6163305;28;83133;-68
2021/12/15 11:50:51;;;;;;;259.42;60.17;;;22.80;43.30;;;;;;6163484;28;83827;-68
2021/12/15 11:53:52;;;;;;;304.00;69.32;;;22.90;44.70;;;;;;6157577;28;85691;-68
2021/12/15 11:56:52;;;;;;;258.15;65.93;;;22.80;46.10;;;;;;6155863;28;83378;-68
2021/12/15 11:59:53;;;;;;;221.98;60.53;;;22.90;47.10;;;;;;6157324;28;82950;-68
2021/12/15 12:02:54;;;;;;;210.15;59.65;;;22.90;48.30;;;;;;6160171;28;83495;-68
2021/12/15 12:05:56;;;;;;;197.25;54.63;;;22.90;49.20;;;;;;6163742;28;82948;-68
2021/12/15 12:08:57;;;;;;;174.80;48.35;;;22.90;49.60;;;;;;6169958;28;83462;-68
2021/12/15 12:12:00;;;;;;;181.75;48.33;;;22.90;49.50;;;;;;6172660;28;83010;-68
2021/12/15 12:15:00;;;;;;;141.63;40.08;;;22.90;49.20;;;;;;6171629;28;84321;-69
2021/12/15 12:18:01;;;;;;;113.78;35.58;;;22.90;48.80;;;;;;6167068;28;85859;-69
2021/12/15 12:21:01;;;;;;;109.45;34.50;;;22.90;48.50;;;;;;6164257;28;84331;-69
2021/12/15 12:24:02;;;;;;;110.68;34.53;;;22.80;47.90;;;;;;6166772;28;83547;-68
2021/12/15 12:27:02;;;;;;;77.47;26.08;;;22.80;47.60;;;;;;6176020;28;83254;-69
2021/12/15 12:30:03;;;;;;;78.85;26.15;;;22.80;47.10;;;;;;6169551;28;82938;-69
2021/12/15 12:33:08;;;;;;;78.55;24.77;;;22.90;46.80;;;;;;6170755;28;83095;-68
2021/12/15 12:36:08;;;;;;;58.17;21.53;;;22.80;46.40;;;;;;6158558;28;89742;-68
2021/12/15 12:39:09;;;;;;;54.72;20.20;;;22.90;46.10;;;;;;6175753;28;83049;-70
2021/12/15 12:42:09;;;;;;;59.50;18.63;;;22.80;45.70;;;;;;6169359;28;83440;-70
2021/12/15 12:45:10;;;;;;;49.42;16.60;;;22.90;45.50;;;;;;6171296;28;83149;-71
2021/12/15 12:48:26;;;;;;;38.25;15.68;;;22.90;45.10;;;;;;6167864;28;85110;-72
2021/12/15 13:01:26;;;;;;;35.03;14.40;;;22.90;44.20;;;;;;6156454;28;83260;-71
2021/12/15 13:04:27;;;;;;;30.42;11.80;;;22.90;43.90;;;;;;6166944;28;84040;-71
2021/12/15 13:07:27;;;;;;;24.23;10.35;;;22.90;43.80;;;;;;6179829;28;83004;-69
2021/12/15 13:10:28;;;;;;;24.48;10.85;;;22.90;43.70;;;;;;6171206;28;83399;-69
2021/12/15 13:13:28;;;;;;;21.80;10.05;;;22.90;43.60;;;;;;6167239;28;83273;-69
2021/12/15 13:16:29;;;;;;;26.48;11.57;;;22.90;43.40;;;;;;6162044;28;83783;-69
2021/12/15 13:19:29;;;;;;;23.27;10.85;;;22.90;43.40;;;;;;6172558;27;83020;-71
2021/12/15 13:23:05;;;;;;;26.40;11.43;;;23.00;43.30;;;;;;6170270;28;83398;-69
2021/12/15 13:29:13;;;;;;;25.95;11.10;;;22.90;43.90;;;;;;6174761;28;83813;-66
2021/12/15 13:32:14;;;;;;;34.92;12.93;;;22.90;44.20;;;;;;6161066;28;85764;-66
2021/12/15 13:35:14;;;;;;;34.38;15.05;;;22.90;44.50;;;;;;6175421;28;83101;-69
2021/12/15 13:38:15;;;;;;;53.58;29.45;;;23.00;43.70;;;;;;6171129;27;83401;-70
2021/12/15 13:41:20;;;;;;;38.78;18.77;;;22.60;41.80;;;;;;6166429;28;83042;-71
2021/12/15 13:44:22;;;;;;;41.65;20.52;;;22.70;43.50;;;;;;6169882;28;84061;-72
2021/12/15 13:47:24;;;;;;;33.15;18.02;;;22.60;43.10;;;;;;6161978;28;83085;-72
2021/12/15 13:50:26;;;;;;;31.77;15.02;;;22.70;43.40;;;;;;6165526;28;87798;-71
2021/12/15 13:53:26;;;;;;;27.60;13.45;;;22.70;43.50;;;;;;6163915;28;83698;-68
2021/12/15 13:56:27;;;;;;;26.05;11.52;;;22.80;43.80;;;;;;6163022;28;83542;-72
2021/12/15 13:59:27;;;;;;;21.50;11.95;;;22.80;44.10;;;;;;6168163;28;83439;-72
2021/12/15 14:02:28;;;;;;;19.20;10.82;;;22.80;44.00;;;;;;6168846;28;85119;-72
2021/12/15 14:05:28;;;;;;;20.95;10.73;;;22.80;44.10;;;;;;6166947;28;90701;-69
2021/12/15 14:08:29;;;;;;;19.42;9.70;;;22.90;44.10;;;;;;6163983;28;83295;-69
2021/12/15 14:11:30;;;;;;;17.33;9.18;;;22.90;44.10;;;;;;6167716;28;83305;-69
2021/12/15 14:14:30;;;;;;;18.30;10.00;;;22.90;44.10;;;;;;6177428;28;80871;-69
2021/12/15 14:17:31;;;;;;;15.20;7.95;;;23.00;43.90;;;;;;6171977;28;83005;-69
2021/12/15 14:20:31;;;;;;;12.30;7.82;;;23.00;43.80;;;;;;6177354;28;82952;-72
2021/12/15 14:23:32;;;;;;;11.63;7.20;;;23.00;43.80;;;;;;6168019;28;82045;-69
2021/12/15 14:26:33;;;;;;;12.60;6.95;;;23.00;43.60;;;;;;6169472;28;80599;-71
2021/12/15 14:29:34;;;;;;;14.20;7.95;;;23.00;43.40;;;;;;6160577;28;80344;-68
2021/12/15 14:32:34;;;;;;;16.23;8.63;;;23.00;43.40;;;;;;6166251;28;80195;-68
2021/12/15 14:35:35;;;;;;;11.45;7.63;;;23.00;43.40;;;;;;6170052;28;80562;-69
2021/12/15 14:38:35;;;;;;;13.13;7.80;;;22.90;43.60;;;;;;6161138;28;80826;-69
2021/12/15 14:41:37;;;;;;;13.75;7.80;;;22.90;44.30;;;;;;6176784;28;81057;-69
2021/12/15 14:44:38;;;;;;;13.45;7.93;;;23.00;44.40;;;;;;6173281;28;82887;-70
2021/12/15 14:47:38;;;;;;;13.75;8.45;;;23.00;44.50;;;;;;6172599;28;80317;-69
2021/12/15 14:50:39;;;;;;;13.43;7.57;;;23.00;44.60;;;;;;6174536;28;80505;-69
2021/12/15 14:53:39;;;;;;;15.00;8.27;;;23.00;44.80;;;;;;6166076;28;80884;-69
2021/12/15 14:56:40;;;;;;;12.50;8.75;;;23.00;45.00;;;;;;6205511;28;81470;-64
2021/12/15 14:59:40;;;;;;;13.85;7.82;;;23.00;45.20;;;;;;6166725;27;81317;-70
2021/12/15 15:02:43;;;;;;;14.15;8.80;;;23.00;45.40;;;;;;6171524;28;80266;-66
2021/12/15 15:05:45;;;;;;;16.33;9.18;;;23.00;45.80;;;;;;6172654;28;80495;-68
2021/12/15 15:08:45;;;;;;;14.38;9.00;;;23.00;46.70;;;;;;6171961;28;81001;-67
2021/12/15 15:11:46;;;;;;;15.43;9.13;;;23.00;46.70;;;;;;6171707;28;80570;-69
2021/12/15 15:14:47;;;;;;;15.98;9.20;;;23.10;47.10;;;;;;6167313;28;81452;-67
2021/12/15 15:17:50;;;;;;;13.48;8.25;;;23.10;47.20;;;;;;6166064;28;80988;-67
2021/12/15 15:20:51;;;;;;;13.40;8.07;;;23.10;47.20;;;;;;6172140;28;80543;-66
2021/12/15 15:23:51;;;;;;;15.60;8.05;;;23.10;47.60;;;;;;6164309;28;80904;-68
2021/12/15 15:26:52;;;;;;;13.45;8.30;;;23.20;47.60;;;;;;6165185;28;81103;-66
2021/12/15 15:29:52;;;;;;;14.25;8.57;;;23.30;47.60;;;;;;6163400;28;80486;-67
2021/12/15 15:32:53;;;;;;;12.00;7.72;;;23.20;47.60;;;;;;6162660;28;80995;-70
2021/12/15 15:35:53;;;;;;;13.38;8.60;;;23.30;47.60;;;;;;6159326;28;80585;-68
2021/12/15 15:38:54;;;;;;;14.57;8.75;;;23.30;47.50;;;;;;6169766;28;81821;-68
2021/12/15 15:41:54;;;;;;;12.32;8.48;;;23.30;47.70;;;;;;6163939;28;80123;-68
2021/12/15 15:44:55;;;;;;;14.48;9.63;;;23.30;47.80;;;;;;6166911;28;80371;-67
2021/12/15 15:47:55;;;;;;;17.58;9.65;;;23.30;47.60;;;;;;6171726;28;81584;-67
2021/12/15 15:50:56;;;;;;;15.65;9.57;;;23.30;47.60;;;;;;6162391;28;81302;-67
2021/12/15 15:53:57;;;;;;;18.10;8.85;;;23.30;47.60;;;;;;6178522;28;80584;-67
2021/12/15 15:56:57;;;;;;;15.05;10.07;;;23.40;48.00;;;;;;6171161;28;80832;-67
2021/12/15 15:59:58;;;;;;;18.38;9.75;;;23.30;47.80;;;;;;6170702;28;82891;-67
2021/12/15 16:02:58;;;;;;;16.20;10.07;;;23.40;48.30;;;;;;6162191;28;81770;-67
2021/12/15 16:05:59;;;;;;;18.27;10.25;;;23.30;47.70;;;;;;6163241;28;83112;-67
2021/12/15 16:08:59;;;;;;;15.18;10.00;;;23.30;47.80;;;;;;6161404;28;83816;-67
2021/12/15 16:12:00;;;;;;;17.35;10.15;;;23.30;47.90;;;;;;6174165;28;84555;-67
2021/12/15 16:15:00;;;;;;;14.45;10.00;;;23.30;47.90;;;;;;6172676;28;83419;-68
2021/12/15 16:18:01;;;;;;;17.88;10.52;;;23.30;48.00;;;;;;6175920;28;83182;-67
2021/12/15 16:24:02;;;;;;;17.45;11.68;;;23.30;47.90;;;;;;6168291;28;83446;-67
2021/12/15 16:27:02;;;;;;;18.98;11.60;;;23.30;47.80;;;;;;6167082;28;83303;-67
2021/12/15 16:30:03;;;;;;;16.60;10.23;;;23.30;47.70;;;;;;6160936;28;83018;-71
2021/12/15 16:33:03;;;;;;;18.23;11.20;;;23.30;47.90;;;;;;6157255;28;83060;-67
2021/12/15 16:36:05;;;;;;;19.85;11.43;;;23.40;48.00;;;;;;6153199;28;82808;-66
2021/12/15 16:39:05;;;;;;;23.23;11.20;;;23.40;47.60;;;;;;6155568;28;83600;-65
2021/12/15 16:42:06;;;;;;;20.33;12.52;;;23.40;47.60;;;;;;6159751;28;83308;-67